createdAt,value
2018-06-19T00:01:48.049Z,89.96
2018-06-19T00:04:52.474Z,90.39
2018-06-19T00:07:56.898Z,90.67
2018-06-19T00:11:01.346Z,91.09
2018-06-19T00:14:05.814Z,91.00
2018-06-19T00:17:10.237Z,91.14
2018-06-19T00:20:14.661Z,91.57
2018-06-19T00:23:19.089Z,91.81
2018-06-19T00:26:23.496Z,91.74
2018-06-19T00:29:27.917Z,92.17
2018-06-19T00:32:32.325Z,92.09
2018-06-19T00:35:36.733Z,91.61
2018-06-19T00:38:41.136Z,91.37
2018-06-19T00:41:45.539Z,91.14
2018-06-19T00:44:49.906Z,91.20
2018-06-19T00:47:54.471Z,90.76
2018-06-19T00:50:59.036Z,90.82
2018-06-19T00:54:04.286Z,90.50
2018-06-19T00:57:08.774Z,90.08
2018-06-19T01:00:13.185Z,90.75
2018-06-19T01:03:17.586Z,90.22
2018-06-19T01:06:22.009Z,90.09
2018-06-19T01:09:26.381Z,89.60
2018-06-19T01:12:30.780Z,90.38
2018-06-19T01:15:35.156Z,90.11
2018-06-19T01:18:39.572Z,90.08
2018-06-19T01:21:43.972Z,91.25
2018-06-19T01:24:48.365Z,91.03
2018-06-19T01:27:52.765Z,90.63
2018-06-19T01:30:57.181Z,91.02
2018-06-19T01:34:01.565Z,91.56
2018-06-19T01:37:06.012Z,91.05
2018-06-19T01:40:10.396Z,91.24
2018-06-19T01:43:14.793Z,90.99
2018-06-19T01:46:19.197Z,91.09
2018-06-19T01:49:23.591Z,91.55
2018-06-19T01:52:27.977Z,91.34
2018-06-19T01:55:32.377Z,91.38
2018-06-19T01:58:36.792Z,90.80
2018-06-19T02:01:41.205Z,90.85
2018-06-19T02:04:45.603Z,91.43
2018-06-19T02:07:49.984Z,91.05
2018-06-19T02:10:54.388Z,90.86
2018-06-19T02:13:58.784Z,90.70
2018-06-19T02:17:03.177Z,90.75
2018-06-19T02:20:08.206Z,91.01
2018-06-19T02:23:12.584Z,91.28
2018-06-19T02:26:16.949Z,90.81
2018-06-19T02:29:21.368Z,90.76
2018-06-19T02:32:25.777Z,90.63
2018-06-19T02:35:30.178Z,90.09
2018-06-19T02:38:34.577Z,90.19
2018-06-19T02:41:39.121Z,89.70
2018-06-19T02:44:43.560Z,89.94
2018-06-19T02:47:47.964Z,89.40
2018-06-19T02:50:52.356Z,90.05
2018-06-19T02:53:56.748Z,89.50
2018-06-19T02:57:01.259Z,89.55
2018-06-19T03:00:06.349Z,90.15
2018-06-19T03:03:10.725Z,89.53
2018-06-19T03:06:15.118Z,90.19
2018-06-19T03:09:19.520Z,89.53
2018-06-19T03:12:23.900Z,89.18
2018-06-19T03:15:28.280Z,89.42
2018-06-19T03:18:32.658Z,89.16
2018-06-19T03:21:37.102Z,89.42
2018-06-19T03:24:41.526Z,89.46
2018-06-19T03:27:45.907Z,89.92
2018-06-19T03:30:50.294Z,89.27
2018-06-19T03:33:54.786Z,89.50
2018-06-19T03:36:59.174Z,89.78
2018-06-19T03:40:03.604Z,88.94
2018-06-19T03:43:07.990Z,89.00
2018-06-19T03:46:12.445Z,89.45
2018-06-19T03:49:16.820Z,88.92
2018-06-19T03:52:21.205Z,89.69
2018-06-19T03:55:25.576Z,89.32
2018-06-19T03:58:29.981Z,88.97
2018-06-19T04:01:34.410Z,88.81
2018-06-19T04:04:38.812Z,88.89
2018-06-19T04:07:43.254Z,89.18
2018-06-19T04:10:47.629Z,89.63
2018-06-19T04:13:51.998Z,88.96
2018-06-19T04:16:56.373Z,88.92
2018-06-19T04:20:00.766Z,89.69
2018-06-19T04:23:05.145Z,89.88
2018-06-19T04:26:09.533Z,89.50
2018-06-19T04:29:13.905Z,88.93
2018-06-19T04:32:18.256Z,89.08
2018-06-19T04:35:22.697Z,89.04
2018-06-19T04:38:27.086Z,89.68
2018-06-19T04:41:31.458Z,89.85
2018-06-19T04:44:35.841Z,89.49
2018-06-19T04:47:40.216Z,89.78
2018-06-19T04:50:44.596Z,89.80
2018-06-19T04:53:48.992Z,90.12
2018-06-19T04:56:53.372Z,90.25
2018-06-19T04:59:57.509Z,89.96
2018-06-19T05:03:01.886Z,90.08
2018-06-19T05:06:06.310Z,89.18
2018-06-19T05:09:13.033Z,89.34
2018-06-19T05:12:17.420Z,89.33
2018-06-19T05:15:21.822Z,89.53
2018-06-19T05:18:26.215Z,88.65
2018-06-19T05:21:30.612Z,88.59
2018-06-19T05:24:35.009Z,89.47
2018-06-19T05:27:39.411Z,89.47
2018-06-19T05:30:43.805Z,88.99
2018-06-19T05:33:48.212Z,89.60
2018-06-19T05:36:52.597Z,89.55
2018-06-19T05:39:57.022Z,89.89
2018-06-19T05:43:01.404Z,89.02
2018-06-19T05:46:05.779Z,89.54
2018-06-19T05:49:10.172Z,89.68
2018-06-19T05:52:14.623Z,89.27
2018-06-19T05:55:18.989Z,89.42
2018-06-19T05:58:23.374Z,89.02
2018-06-19T06:01:27.819Z,88.33
2018-06-19T06:04:32.189Z,89.37
2018-06-19T06:07:36.597Z,89.20
2018-06-19T06:10:40.966Z,88.83
2018-06-19T06:13:45.354Z,89.32
2018-06-19T06:16:49.733Z,88.93
2018-06-19T06:19:54.108Z,89.12
2018-06-19T06:22:58.473Z,87.89
2018-06-19T06:26:02.862Z,88.02
2018-06-19T06:29:07.265Z,87.35
2018-06-19T06:32:11.669Z,86.55
2018-06-19T06:35:16.045Z,86.30
2018-06-19T06:38:20.454Z,85.53
2018-06-19T06:41:24.878Z,84.55
2018-06-19T06:44:29.307Z,84.70
2018-06-19T06:47:33.700Z,85.05
2018-06-19T06:50:38.130Z,84.86
2018-06-19T06:53:42.496Z,85.13
2018-06-19T06:56:46.902Z,85.38
2018-06-19T06:59:51.292Z,83.63
2018-06-19T07:02:55.668Z,82.61
2018-06-19T07:06:00.069Z,82.11
2018-06-19T07:09:06.862Z,80.47
2018-06-19T07:12:11.292Z,80.57
2018-06-19T07:15:15.677Z,79.81
2018-06-19T07:18:20.081Z,78.50
2018-06-19T07:21:24.457Z,79.49
2018-06-19T07:24:28.853Z,79.74
2018-06-19T07:27:33.227Z,78.32
2018-06-19T07:30:37.672Z,77.27
2018-06-19T07:33:42.050Z,78.35
2018-06-19T07:36:46.499Z,77.31
2018-06-19T07:39:50.858Z,76.42
2018-06-19T07:42:59.310Z,75.28
2018-06-19T07:46:03.691Z,75.42
2018-06-19T07:49:08.090Z,76.58
2018-06-19T07:52:12.483Z,76.25
2018-06-19T07:55:16.869Z,77.70
2018-06-19T07:58:21.285Z,77.29
2018-06-19T08:01:25.788Z,77.75
2018-06-19T08:04:30.149Z,77.68
2018-06-19T08:07:34.526Z,75.76
2018-06-19T08:10:38.917Z,76.24
2018-06-19T08:13:43.345Z,77.32
2018-06-19T08:16:47.732Z,77.23
2018-06-19T08:19:52.133Z,78.47
2018-06-19T08:22:56.528Z,77.21
2018-06-19T08:26:00.930Z,77.74
2018-06-19T08:29:05.292Z,76.52
2018-06-19T08:32:09.669Z,78.08
2018-06-19T08:35:14.089Z,75.45
2018-06-19T08:38:18.449Z,75.93
2018-06-19T08:41:22.615Z,77.70
2018-06-19T08:44:27.024Z,77.20
2018-06-19T08:47:31.468Z,77.14
2018-06-19T08:50:35.857Z,75.44
2018-06-19T08:53:40.258Z,74.85
2018-06-19T08:56:44.642Z,75.92
2018-06-19T08:59:49.034Z,73.70
2018-06-19T09:02:53.417Z,73.58
2018-06-19T09:05:57.800Z,72.18
2018-06-19T09:09:02.173Z,71.44
2018-06-19T09:12:06.686Z,73.01
2018-06-19T09:15:11.070Z,72.27
2018-06-19T09:18:15.474Z,73.79
2018-06-19T09:21:19.848Z,74.01
2018-06-19T09:24:24.209Z,73.40
2018-06-19T09:27:28.590Z,73.70
2018-06-19T09:30:32.953Z,71.98
2018-06-19T09:33:37.393Z,73.70
2018-06-19T09:36:41.776Z,74.40
2018-06-19T09:39:46.206Z,74.29
2018-06-19T09:42:50.524Z,75.02
2018-06-19T09:45:54.945Z,73.77
2018-06-19T09:48:59.353Z,73.16
2018-06-19T09:52:03.797Z,71.08
2018-06-19T09:55:08.210Z,73.58
2018-06-19T09:58:12.601Z,69.97
2018-06-19T10:01:16.974Z,70.47
2018-06-19T10:04:21.401Z,70.84
2018-06-19T10:07:25.773Z,72.25
2018-06-19T10:10:30.132Z,71.79
2018-06-19T10:13:34.554Z,71.75
2018-06-19T10:16:38.968Z,70.26
2018-06-19T10:19:43.409Z,71.99
2018-06-19T10:22:47.808Z,68.44
2018-06-19T10:25:52.161Z,69.32
2018-06-19T10:28:56.525Z,68.42
2018-06-19T10:32:00.937Z,65.89
2018-06-19T10:35:05.376Z,64.72
2018-06-19T10:38:09.779Z,62.78
2018-06-19T10:41:14.197Z,58.91
2018-06-19T10:44:18.577Z,62.60
2018-06-19T10:47:22.990Z,60.87
2018-06-19T10:50:27.402Z,61.42
2018-06-19T10:53:31.816Z,62.79
2018-06-19T10:56:36.213Z,57.67
2018-06-19T10:59:40.630Z,57.74
2018-06-19T11:02:45.025Z,57.05
2018-06-19T11:05:49.489Z,61.57
2018-06-19T11:08:53.908Z,58.11
2018-06-19T11:11:58.349Z,56.60
2018-06-19T11:15:02.792Z,56.76
2018-06-19T11:18:07.199Z,55.58
2018-06-19T11:21:11.368Z,58.71
2018-06-19T11:24:15.819Z,58.31
2018-06-19T11:27:20.262Z,56.67
2018-06-19T11:30:24.682Z,57.14
2018-06-19T11:33:29.288Z,56.76
2018-06-19T11:36:33.837Z,55.01
2018-06-19T11:39:38.836Z,56.84
2018-06-19T11:42:43.301Z,56.31
2018-06-19T11:45:47.798Z,55.47
2018-06-19T11:48:52.216Z,51.70
2018-06-19T11:51:56.644Z,55.93
2018-06-19T11:55:01.118Z,53.65
2018-06-19T11:58:05.714Z,55.15
2018-06-19T12:01:10.197Z,53.04
2018-06-19T12:04:14.593Z,56.10
2018-06-19T12:07:19.035Z,54.46
2018-06-19T12:10:23.497Z,53.58
2018-06-19T12:13:27.956Z,53.86
2018-06-19T12:16:32.425Z,52.84
2018-06-19T12:19:36.868Z,55.88
2018-06-19T12:22:41.344Z,57.41
2018-06-19T12:25:45.813Z,54.99
2018-06-19T12:28:50.337Z,55.12
2018-06-19T12:31:54.761Z,53.11
2018-06-19T12:34:59.210Z,55.80
2018-06-19T12:38:03.673Z,57.44
2018-06-19T12:41:08.134Z,58.11
2018-06-19T12:44:12.379Z,57.12
2018-06-19T12:47:16.817Z,58.30
2018-06-19T12:50:43.197Z,61.31
2018-06-19T12:55:06.729Z,60.43
2018-06-19T12:58:11.160Z,58.72
2018-06-19T13:01:15.628Z,57.55
2018-06-19T13:04:37.116Z,55.47
2018-06-19T13:07:43.580Z,56.51
2018-06-19T13:10:48.040Z,59.58
2018-06-19T13:14:09.401Z,58.58
2018-06-19T13:17:30.762Z,57.82
2018-06-19T13:20:49.460Z,57.57
2018-06-19T13:23:53.909Z,53.82
2018-06-19T13:26:58.306Z,57.86
2018-06-19T13:30:19.542Z,55.00
2018-06-19T13:33:23.967Z,56.17
2018-06-19T13:36:28.369Z,56.49
2018-06-19T13:39:33.184Z,54.89
2018-06-19T13:44:59.674Z,55.15
2018-06-19T13:48:04.119Z,58.42
2018-06-19T13:51:08.721Z,57.39
2018-06-19T13:54:13.140Z,56.99
2018-06-19T13:57:36.244Z,55.29
2018-06-19T14:00:40.697Z,54.93
2018-06-19T14:03:45.883Z,57.39
2018-06-19T14:06:50.388Z,55.04
2018-06-19T14:10:19.925Z,57.55
2018-06-19T14:13:24.345Z,56.10
2018-06-19T14:16:28.758Z,53.18
2018-06-19T14:19:33.141Z,55.20
2018-06-19T14:22:37.538Z,53.28
2018-06-19T14:25:42.001Z,52.84
2018-06-19T14:28:46.407Z,53.65
2018-06-19T14:31:50.844Z,56.20
2018-06-19T14:34:55.241Z,53.63
2018-06-19T14:37:59.631Z,54.18
2018-06-19T14:41:04.025Z,53.27
2018-06-19T14:44:08.400Z,51.62
2018-06-19T14:47:12.790Z,55.30
2018-06-19T14:50:17.204Z,52.74
2018-06-19T14:53:21.565Z,49.47
2018-06-19T14:56:25.938Z,50.71
2018-06-19T14:59:30.316Z,49.52
2018-06-19T15:02:34.786Z,50.71
2018-06-19T15:05:39.174Z,49.27
2018-06-19T15:08:43.566Z,49.92
2018-06-19T15:11:47.957Z,48.68
2018-06-19T15:14:52.357Z,48.72
2018-06-19T15:17:56.720Z,49.25
2018-06-19T15:21:01.058Z,46.87
2018-06-19T15:24:07.571Z,49.16
2018-06-19T15:27:12.507Z,47.33
2018-06-19T15:30:16.940Z,48.78
2018-06-19T15:33:21.340Z,48.98
2018-06-19T15:36:25.759Z,47.31
2018-06-19T15:39:30.154Z,48.82
2018-06-19T15:42:34.658Z,48.84
2018-06-19T15:45:39.132Z,48.80
2018-06-19T15:48:43.549Z,50.69
2018-06-19T15:51:47.967Z,48.45
2018-06-19T15:54:52.362Z,49.45
2018-06-19T15:57:56.766Z,51.22
2018-06-19T16:01:01.169Z,52.35
2018-06-19T16:04:05.606Z,50.42
2018-06-19T16:07:10.025Z,50.73
2018-06-19T16:10:14.430Z,49.66
2018-06-19T16:13:18.849Z,50.14
2018-06-19T16:16:23.255Z,51.49
2018-06-19T16:19:27.427Z,51.16
2018-06-19T16:22:31.804Z,50.96
2018-06-19T16:25:36.270Z,52.31
2018-06-19T16:28:40.667Z,52.70
2018-06-19T16:31:45.113Z,53.34
2018-06-19T16:34:49.479Z,53.29
2018-06-19T16:37:53.954Z,54.83
2018-06-19T16:40:58.328Z,53.73
2018-06-19T16:44:02.706Z,55.54
2018-06-19T16:47:07.085Z,54.59
2018-06-19T16:50:11.495Z,53.11
2018-06-19T16:53:15.880Z,55.35
2018-06-19T16:56:20.257Z,56.86
2018-06-19T16:59:24.637Z,56.36
2018-06-19T17:02:29.009Z,55.14
2018-06-19T17:05:33.514Z,56.21
2018-06-19T17:08:37.884Z,57.85
2018-06-19T17:11:42.286Z,59.92
2018-06-19T17:14:46.691Z,59.25
2018-06-19T17:17:51.060Z,60.34
2018-06-19T17:20:55.470Z,59.84
2018-06-19T17:24:00.033Z,60.34
2018-06-19T17:27:04.416Z,61.34
2018-06-19T17:30:08.802Z,62.06
2018-06-19T17:33:13.172Z,62.49
2018-06-19T17:36:17.561Z,63.79
2018-06-19T17:39:21.941Z,63.71
2018-06-19T17:42:26.393Z,65.27
2018-06-19T17:45:30.761Z,64.81
2018-06-19T17:48:35.154Z,64.76
2018-06-19T17:51:39.508Z,65.43
2018-06-19T17:54:43.900Z,65.34
2018-06-19T17:57:48.277Z,66.03
2018-06-19T18:00:52.649Z,66.27
2018-06-19T18:03:57.012Z,66.92
2018-06-19T18:07:01.398Z,66.51
2018-06-19T18:10:05.766Z,64.58
2018-06-19T18:13:10.136Z,64.97
2018-06-19T18:16:14.494Z,65.32
2018-06-19T18:19:18.890Z,67.21
2018-06-19T18:22:23.268Z,67.20
2018-06-19T18:25:27.649Z,67.98
2018-06-19T18:28:32.028Z,68.83
2018-06-19T18:31:36.400Z,68.63
2018-06-19T18:34:40.774Z,68.06
2018-06-19T18:37:45.128Z,69.33
2018-06-19T18:40:49.505Z,69.42
2018-06-19T18:43:53.892Z,69.68
2018-06-19T18:46:58.346Z,69.79
2018-06-19T18:50:02.696Z,70.28
2018-06-19T18:53:07.084Z,70.83
2018-06-19T18:56:11.477Z,71.58
2018-06-19T18:59:15.869Z,71.75
2018-06-19T19:02:20.256Z,71.49
2018-06-19T19:05:24.622Z,71.81
2018-06-19T19:08:29.010Z,71.83
2018-06-19T19:11:33.361Z,70.85
2018-06-19T19:14:43.007Z,71.04
2018-06-19T19:17:52.610Z,71.10
2018-06-19T19:20:57.888Z,70.83
2018-06-19T19:24:02.161Z,71.01
2018-06-19T19:27:11.708Z,70.82
2018-06-19T19:30:16.123Z,70.35
2018-06-19T19:33:20.501Z,70.86
2018-06-19T19:36:30.081Z,70.98
2018-06-19T19:39:34.482Z,70.73
2018-06-19T19:42:38.885Z,69.70
2018-06-19T19:45:43.257Z,69.86
2018-06-19T19:48:52.634Z,70.23
2018-06-19T19:51:57.035Z,69.49
2018-06-19T19:55:01.413Z,69.77
2018-06-19T19:58:10.905Z,70.60
2018-06-19T20:01:15.282Z,70.37
2018-06-19T20:04:19.677Z,70.18
2018-06-19T20:07:24.109Z,71.04
2018-06-19T20:10:28.505Z,71.99
2018-06-19T20:13:32.867Z,71.71
2018-06-19T20:16:37.225Z,71.73
2018-06-19T20:19:41.601Z,71.85
2018-06-19T20:22:45.985Z,72.24
2018-06-19T20:25:50.361Z,72.14
2018-06-19T20:28:54.798Z,72.86
2018-06-19T20:31:59.200Z,72.57
2018-06-19T20:35:03.612Z,73.17
2018-06-19T20:38:07.967Z,73.60
2018-06-19T20:41:13.418Z,73.87
2018-06-19T20:44:17.804Z,73.64
2018-06-19T20:47:22.202Z,74.26
2018-06-19T20:50:26.575Z,75.04
2018-06-19T20:53:30.937Z,74.81
2018-06-19T20:56:35.337Z,74.80
2018-06-19T20:59:40.027Z,75.25
2018-06-19T21:02:44.414Z,75.03
2018-06-19T21:05:48.796Z,75.38
2018-06-19T21:08:53.165Z,75.76
2018-06-19T21:11:57.560Z,75.96
2018-06-19T21:15:01.925Z,75.37
2018-06-19T21:18:06.321Z,75.51
2018-06-19T21:21:10.714Z,76.11
2018-06-19T21:24:15.117Z,76.73
2018-06-19T21:27:20.390Z,77.30
2018-06-19T21:30:24.815Z,77.44
2018-06-19T21:33:29.186Z,77.61
2018-06-19T21:36:33.565Z,78.33
2018-06-19T21:39:38.012Z,78.02
2018-06-19T21:42:42.438Z,78.43
2018-06-19T21:45:46.828Z,78.42
2018-06-19T21:48:51.230Z,78.54
2018-06-19T21:51:55.585Z,79.59
2018-06-19T21:55:00.009Z,79.29
2018-06-19T21:58:04.485Z,79.65
2018-06-19T22:01:08.636Z,80.35
2018-06-19T22:04:13.007Z,80.43
2018-06-19T22:07:17.417Z,80.85
2018-06-19T22:10:21.789Z,81.16
2018-06-19T22:13:26.188Z,81.52
2018-06-19T22:16:30.568Z,81.66
2018-06-19T22:19:34.959Z,81.79
2018-06-19T22:22:39.356Z,81.38
2018-06-19T22:25:43.722Z,81.80
2018-06-19T22:28:48.112Z,81.34
2018-06-19T22:31:52.452Z,81.60
2018-06-19T22:34:56.842Z,82.52
2018-06-19T22:38:01.185Z,82.31
2018-06-19T22:41:05.581Z,81.96
2018-06-19T22:44:09.985Z,82.51
2018-06-19T22:47:14.424Z,82.21
2018-06-19T22:50:18.800Z,82.73
2018-06-19T22:53:23.146Z,82.83
2018-06-19T22:56:27.557Z,82.98
2018-06-19T22:59:31.941Z,82.54
2018-06-19T23:02:36.321Z,82.83
2018-06-19T23:05:40.749Z,82.69
2018-06-19T23:08:45.117Z,83.27
2018-06-19T23:11:49.501Z,83.21
2018-06-19T23:14:53.867Z,83.59
2018-06-19T23:17:58.322Z,83.10
2018-06-19T23:21:02.693Z,83.46
2018-06-19T23:24:07.093Z,83.25
2018-06-19T23:27:11.465Z,83.59
2018-06-19T23:30:16.468Z,83.30
2018-06-19T23:33:20.864Z,83.42
2018-06-19T23:36:25.237Z,83.11
2018-06-19T23:39:29.595Z,82.96
2018-06-19T23:42:34.491Z,83.13
2018-06-19T23:45:38.887Z,83.44
2018-06-19T23:48:43.234Z,83.87
2018-06-19T23:51:47.634Z,83.64
2018-06-19T23:54:52.018Z,83.41
2018-06-19T23:57:56.385Z,83.95
